createdAt,value
2023-04-11T00:00:39.100Z,84.81
2023-04-11T00:03:13.695Z,84.23
2023-04-11T00:05:41.730Z,85.06
2023-04-11T00:08:09.420Z,85.76
2023-04-11T00:10:37.354Z,85.62
2023-04-11T00:13:07.394Z,85.88
2023-04-11T00:15:35.484Z,86.31
2023-04-11T00:18:03.995Z,85.93
2023-04-11T00:20:31.797Z,86.18
2023-04-11T00:22:59.674Z,86.57
2023-04-11T00:25:27.860Z,86.63
2023-04-11T00:27:55.605Z,86.60
2023-04-11T00:30:23.314Z,86.00
2023-04-11T00:32:51.246Z,86.04
2023-04-11T00:35:20.196Z,86.34
2023-04-11T00:37:54.196Z,86.08
2023-04-11T00:40:22.576Z,86.09
2023-04-11T00:42:50.413Z,86.11
2023-04-11T00:45:18.342Z,85.86
2023-04-11T00:47:46.201Z,85.77
2023-04-11T00:50:15.957Z,85.28
2023-04-11T00:52:46.352Z,85.47
2023-04-11T00:55:14.430Z,86.64
2023-04-11T00:57:43.569Z,85.59
2023-04-11T01:00:12.483Z,85.27
2023-04-11T01:02:43.652Z,85.34
2023-04-11T01:05:14.804Z,84.74
2023-04-11T01:07:45.723Z,84.92
2023-04-11T01:10:15.155Z,84.66
2023-04-11T01:12:44.194Z,85.04
2023-04-11T01:15:12.106Z,84.93
2023-04-11T01:17:41.811Z,84.84
2023-04-11T01:20:11.666Z,85.21
2023-04-11T01:22:41.011Z,85.03
2023-04-11T01:25:09.397Z,85.71
2023-04-11T01:27:37.862Z,86.12
2023-04-11T01:30:06.900Z,85.74
2023-04-11T01:32:35.380Z,85.66
2023-04-11T01:35:05.317Z,85.89
2023-04-11T01:37:33.276Z,86.57
2023-04-11T01:40:02.127Z,86.06
2023-04-11T01:42:32.536Z,86.21
2023-04-11T01:45:01.092Z,86.68
2023-04-11T01:47:28.842Z,86.80
2023-04-11T01:49:56.577Z,86.86
2023-04-11T01:52:25.369Z,86.35
2023-04-11T01:54:53.061Z,87.45
2023-04-11T01:57:20.977Z,87.12
2023-04-11T01:59:48.826Z,85.66
2023-04-11T02:02:16.921Z,86.12
2023-04-11T02:04:45.269Z,86.73
2023-04-11T02:07:15.447Z,86.58
2023-04-11T02:09:43.204Z,86.65
2023-04-11T02:12:11.076Z,86.41
2023-04-11T02:14:44.401Z,86.80
2023-04-11T02:17:14.193Z,86.93
2023-04-11T02:19:42.154Z,86.72
2023-04-11T02:22:09.990Z,86.60
2023-04-11T02:24:38.826Z,86.53
2023-04-11T02:27:07.671Z,86.84
2023-04-11T02:29:35.670Z,86.61
2023-04-11T02:32:03.552Z,86.73
2023-04-11T02:34:31.422Z,86.60
2023-04-11T02:36:59.115Z,86.46
2023-04-11T02:39:27.084Z,86.11
2023-04-11T02:41:57.434Z,86.36
2023-04-11T02:44:26.389Z,86.24
2023-04-11T02:46:56.266Z,86.27
2023-04-11T02:49:25.598Z,87.10
2023-04-11T02:51:53.651Z,86.41
2023-04-11T02:54:21.357Z,88.08
2023-04-11T02:56:49.511Z,86.91
2023-04-11T02:59:17.313Z,87.95
2023-04-11T03:01:45.437Z,87.35
2023-04-11T03:04:13.425Z,88.27
2023-04-11T03:07:01.454Z,87.46
2023-04-11T03:09:30.063Z,86.07
2023-04-11T03:11:57.947Z,86.89
2023-04-11T03:14:25.698Z,91.43
2023-04-11T03:16:53.368Z,91.71
2023-04-11T03:19:21.237Z,89.12
2023-04-11T03:21:49.090Z,87.74
2023-04-11T03:24:17.839Z,87.16
2023-04-11T03:26:45.789Z,90.12
2023-04-11T03:29:16.688Z,89.94
2023-04-11T03:31:55.691Z,89.04
2023-04-11T03:34:23.546Z,88.82
2023-04-11T03:36:51.894Z,88.76
2023-04-11T03:39:21.816Z,89.05
2023-04-11T03:41:49.870Z,88.96
2023-04-11T03:44:17.733Z,88.63
2023-04-11T03:46:46.677Z,87.44
2023-04-11T03:49:14.846Z,90.42
2023-04-11T03:51:43.139Z,89.95
2023-04-11T03:54:11.291Z,88.75
2023-04-11T03:56:41.102Z,90.89
2023-04-11T03:59:12.911Z,91.82
2023-04-11T04:02:07.050Z,92.34
2023-04-11T04:04:38.517Z,91.03
2023-04-11T04:07:23.990Z,90.46
2023-04-11T04:09:54.114Z,89.39
2023-04-11T04:12:22.046Z,89.50
2023-04-11T04:15:07.594Z,91.72
2023-04-11T04:17:36.243Z,90.48
2023-04-11T04:20:07.080Z,93.80
2023-04-11T04:22:40.053Z,92.43
2023-04-11T04:25:12.627Z,90.36
2023-04-11T04:27:44.523Z,90.01
2023-04-11T04:30:15.415Z,90.01
2023-04-11T04:32:58.901Z,91.26
2023-04-11T04:35:27.122Z,91.81
2023-04-11T04:37:55.624Z,90.32
2023-04-11T04:40:33.040Z,89.95
2023-04-11T04:43:04.160Z,90.90
2023-04-11T04:45:47.589Z,89.66
2023-04-11T04:48:19.710Z,90.31
2023-04-11T04:50:48.317Z,90.36
2023-04-11T04:53:16.362Z,90.10
2023-04-11T04:55:47.586Z,91.63
2023-04-11T04:58:16.350Z,90.52
2023-04-11T05:00:44.706Z,91.36
2023-04-11T05:03:21.003Z,90.62
2023-04-11T05:05:49.639Z,91.18
2023-04-11T05:08:20.899Z,90.50
2023-04-11T05:10:48.816Z,89.88
2023-04-11T05:13:16.613Z,90.04
2023-04-11T05:15:51.284Z,90.09
2023-04-11T05:18:19.512Z,90.03
2023-04-11T05:20:47.229Z,89.83
2023-04-11T05:23:19.695Z,90.12
2023-04-11T05:25:48.037Z,90.96
2023-04-11T05:28:16.246Z,90.57
2023-04-11T05:30:44.039Z,90.24
2023-04-11T05:33:14.537Z,91.03
2023-04-11T05:35:43.201Z,91.32
2023-04-11T05:38:11.112Z,90.49
2023-04-11T05:40:40.297Z,90.96
2023-04-11T05:43:08.582Z,90.34
2023-04-11T05:45:36.383Z,90.39
2023-04-11T05:48:08.062Z,90.68
2023-04-11T05:50:36.485Z,90.09
2023-04-11T05:53:04.884Z,90.24
2023-04-11T05:55:33.134Z,89.84
2023-04-11T05:58:01.016Z,89.78
2023-04-11T06:00:31.163Z,89.40
2023-04-11T06:03:00.388Z,88.87
2023-04-11T06:05:31.566Z,89.08
2023-04-11T06:07:59.993Z,88.77
2023-04-11T06:10:29.013Z,88.83
2023-04-11T06:12:57.887Z,88.62
2023-04-11T06:15:29.170Z,88.24
2023-04-11T06:17:57.009Z,88.09
2023-04-11T06:20:25.069Z,87.76
2023-04-11T06:22:52.941Z,87.45
2023-04-11T06:25:21.635Z,87.12
2023-04-11T06:27:50.159Z,86.96
2023-04-11T06:30:17.943Z,86.66
2023-04-11T06:32:45.745Z,86.13
2023-04-11T06:35:13.553Z,85.57
2023-04-11T06:37:42.361Z,85.54
2023-04-11T06:40:10.722Z,85.42
2023-04-11T06:42:38.422Z,84.82
2023-04-11T06:45:06.949Z,84.54
2023-04-11T06:47:34.667Z,83.81
2023-04-11T06:50:02.572Z,83.89
2023-04-11T06:52:30.593Z,83.09
2023-04-11T06:54:58.359Z,82.35
2023-04-11T06:57:26.291Z,81.97
2023-04-11T06:59:53.976Z,81.47
2023-04-11T07:02:24.925Z,81.38
2023-04-11T07:04:53.529Z,80.99
2023-04-11T07:07:21.453Z,80.61
2023-04-11T07:09:49.223Z,80.47
2023-04-11T07:12:16.899Z,80.07
2023-04-11T07:14:44.612Z,79.75
2023-04-11T07:17:12.389Z,79.03
2023-04-11T07:19:40.663Z,78.57
2023-04-11T07:22:08.639Z,78.27
2023-04-11T07:24:36.353Z,77.89
2023-04-11T07:27:04.869Z,77.61
2023-04-11T07:29:32.755Z,77.63
2023-04-11T07:32:00.619Z,77.75
2023-04-11T07:34:28.479Z,77.03
2023-04-11T07:37:00.885Z,76.28
2023-04-11T07:39:28.744Z,74.99
2023-04-11T07:41:56.850Z,74.80
2023-04-11T07:44:27.239Z,74.00
2023-04-11T07:46:55.391Z,73.83
2023-04-11T07:49:23.386Z,74.15
2023-04-11T07:51:51.110Z,74.32
2023-04-11T07:54:18.925Z,72.99
2023-04-11T07:56:46.649Z,72.07
2023-04-11T07:59:16.116Z,71.05
2023-04-11T08:01:44.794Z,70.84
2023-04-11T08:04:12.992Z,70.70
2023-04-11T08:06:41.449Z,70.65
2023-04-11T08:09:09.191Z,68.79
2023-04-11T08:11:36.990Z,67.23
2023-04-11T08:14:04.976Z,67.35
2023-04-11T08:16:34.326Z,67.44
2023-04-11T08:19:02.376Z,66.11
2023-04-11T08:21:30.165Z,65.47
2023-04-11T08:23:58.109Z,65.39
2023-04-11T08:26:25.955Z,64.18
2023-04-11T08:28:53.756Z,63.57
2023-04-11T08:31:21.520Z,62.82
2023-04-11T08:33:49.242Z,62.41
2023-04-11T08:36:17.179Z,62.14
2023-04-11T08:38:45.118Z,61.30
2023-04-11T08:41:12.896Z,60.42
2023-04-11T08:43:40.708Z,60.27
2023-04-11T08:46:08.549Z,59.19
2023-04-11T08:48:36.648Z,60.22
2023-04-11T08:51:04.653Z,61.33
2023-04-11T08:53:36.627Z,60.61
2023-04-11T08:56:04.520Z,61.72
2023-04-11T08:58:32.443Z,62.08
2023-04-11T09:01:26.154Z,60.56
2023-04-11T09:03:55.320Z,59.23
2023-04-11T09:06:24.323Z,58.80
2023-04-11T09:08:52.320Z,57.65
2023-04-11T09:11:20.802Z,55.08
2023-04-11T09:14:05.923Z,55.03
2023-04-11T09:16:34.231Z,53.23
2023-04-11T09:19:02.144Z,53.97
2023-04-11T09:21:31.147Z,53.37
2023-04-11T09:24:15.766Z,52.19
2023-04-11T09:26:43.680Z,50.56
2023-04-11T09:29:11.876Z,50.84
2023-04-11T09:31:44.625Z,49.32
2023-04-11T09:34:13.377Z,48.45
2023-04-11T09:36:41.156Z,47.92
2023-04-11T09:39:18.748Z,46.80
2023-04-11T09:41:46.964Z,46.43
2023-04-11T09:44:14.787Z,47.71
2023-04-11T09:46:59.712Z,46.72
2023-04-11T09:49:27.897Z,46.46
2023-04-11T09:51:57.128Z,47.48
2023-04-11T09:54:26.415Z,47.73
2023-04-11T09:56:54.398Z,46.94
2023-04-11T09:59:23.405Z,46.29
2023-04-11T10:01:51.860Z,46.96
2023-04-11T10:04:20.508Z,44.72
2023-04-11T10:07:09.038Z,44.34
2023-04-11T10:09:43.471Z,44.34
2023-04-11T10:12:11.690Z,43.33
2023-04-11T10:14:39.857Z,42.01
2023-04-11T10:17:17.680Z,41.88
2023-04-11T10:19:48.628Z,42.41
2023-04-11T10:22:48.844Z,41.20
2023-04-11T10:25:21.812Z,40.83
2023-04-11T10:27:53.561Z,40.01
2023-04-11T10:31:01.766Z,40.38
2023-04-11T10:33:30.578Z,40.22
2023-04-11T10:36:10.042Z,40.41
2023-04-11T10:38:44.210Z,40.01
2023-04-11T10:41:27.800Z,39.01
2023-04-11T10:44:19.565Z,38.09
2023-04-11T10:46:55.346Z,36.93
2023-04-11T10:49:32.630Z,36.60
2023-04-11T10:52:21.657Z,36.93
2023-04-11T10:54:53.898Z,37.65
2023-04-11T10:57:23.183Z,37.70
2023-04-11T10:59:51.097Z,38.18
2023-04-11T11:02:20.133Z,38.39
2023-04-11T11:04:49.315Z,39.04
2023-04-11T11:07:17.599Z,40.56
2023-04-11T11:09:52.607Z,41.66
2023-04-11T11:12:20.462Z,41.86
2023-04-11T11:14:48.175Z,41.68
2023-04-11T11:17:17.000Z,41.54
2023-04-11T11:19:46.441Z,41.04
2023-04-11T11:22:15.725Z,40.95
2023-04-11T11:24:43.724Z,41.17
2023-04-11T11:27:22.918Z,40.67
2023-04-11T11:29:51.850Z,39.93
2023-04-11T11:32:32.776Z,39.47
2023-04-11T11:35:12.651Z,38.98
2023-04-11T11:37:41.860Z,38.72
2023-04-11T11:40:15.387Z,39.75
2023-04-11T11:42:43.409Z,38.98
2023-04-11T11:45:29.319Z,38.66
2023-04-11T11:47:57.167Z,38.79
2023-04-11T11:50:26.969Z,38.99
2023-04-11T11:52:56.556Z,38.86
2023-04-11T11:55:24.757Z,39.03
2023-04-11T11:57:52.495Z,39.48
2023-04-11T12:00:25.184Z,39.70
2023-04-11T12:02:54.986Z,39.68
2023-04-11T12:05:33.125Z,39.05
2023-04-11T12:08:04.390Z,39.28
2023-04-11T12:10:41.955Z,39.72
2023-04-11T12:13:13.105Z,39.62
2023-04-11T12:15:43.711Z,40.04
2023-04-11T12:18:11.912Z,39.55
2023-04-11T12:20:39.709Z,39.10
2023-04-11T12:23:07.589Z,38.53
2023-04-11T12:25:35.432Z,39.17
2023-04-11T12:28:03.216Z,39.73
2023-04-11T12:30:30.931Z,40.68
2023-04-11T12:32:59.027Z,39.40
2023-04-11T12:35:27.524Z,39.43
2023-04-11T12:37:55.781Z,38.74
2023-04-11T12:40:24.485Z,38.74
2023-04-11T12:42:56.152Z,38.47
2023-04-11T12:45:25.907Z,37.90
2023-04-11T12:47:54.033Z,38.08
2023-04-11T12:50:24.084Z,37.92
2023-04-11T12:52:53.096Z,38.05
2023-04-11T12:55:21.736Z,38.78
2023-04-11T12:57:50.507Z,38.87
2023-04-11T13:00:18.932Z,39.50
2023-04-11T13:02:47.009Z,39.37
2023-04-11T13:05:16.573Z,40.19
2023-04-11T13:07:45.187Z,41.33
2023-04-11T13:10:16.042Z,42.03
2023-04-11T13:12:44.974Z,42.11
2023-04-11T13:15:17.203Z,41.75
2023-04-11T13:17:45.488Z,41.50
2023-04-11T13:20:13.818Z,40.63
2023-04-11T13:22:43.059Z,40.69
2023-04-11T13:25:11.990Z,40.69
2023-04-11T13:27:40.949Z,40.26
2023-04-11T13:30:10.660Z,38.91
2023-04-11T13:32:38.780Z,39.04
2023-04-11T13:35:07.558Z,39.53
2023-04-11T13:37:35.406Z,39.28
2023-04-11T13:40:06.758Z,39.46
2023-04-11T13:42:35.137Z,38.92
2023-04-11T13:45:03.035Z,38.10
2023-04-11T13:47:30.944Z,37.95
2023-04-11T13:49:58.676Z,38.57
2023-04-11T13:52:27.384Z,37.50
2023-04-11T13:54:55.212Z,37.33
2023-04-11T13:57:23.115Z,37.48
2023-04-11T13:59:50.990Z,37.58
2023-04-11T14:02:19.035Z,38.66
2023-04-11T14:04:47.015Z,38.93
2023-04-11T14:07:14.829Z,39.09
2023-04-11T14:09:42.605Z,37.78
2023-04-11T14:12:10.439Z,37.81
2023-04-11T14:14:38.220Z,38.65
2023-04-11T14:17:06.316Z,39.27
2023-04-11T14:19:34.152Z,39.59
2023-04-11T14:22:02.205Z,38.57
2023-04-11T14:24:29.942Z,38.74
2023-04-11T14:26:57.754Z,39.57
2023-04-11T14:29:26.411Z,40.16
2023-04-11T14:31:54.423Z,39.77
2023-04-11T14:34:22.480Z,39.55
2023-04-11T14:36:50.354Z,39.89
2023-04-11T14:39:18.119Z,39.99
2023-04-11T14:41:46.028Z,39.85
2023-04-11T14:44:13.986Z,39.30
2023-04-11T14:46:42.225Z,39.99
2023-04-11T14:49:10.081Z,40.17
2023-04-11T14:51:37.901Z,39.80
2023-04-11T14:54:06.637Z,39.57
2023-04-11T14:56:34.674Z,39.83
2023-04-11T14:59:02.559Z,39.06
2023-04-11T15:01:30.747Z,39.06
2023-04-11T15:03:58.811Z,39.21
2023-04-11T15:06:26.776Z,39.82
2023-04-11T15:08:54.539Z,40.69
2023-04-11T15:11:22.260Z,40.75
2023-04-11T15:13:52.924Z,40.70
2023-04-11T15:16:23.631Z,40.65
2023-04-11T15:18:51.367Z,41.44
2023-04-11T15:21:19.100Z,41.94
2023-04-11T15:23:47.227Z,42.30
2023-04-11T15:26:15.077Z,42.83
2023-04-11T15:28:43.752Z,43.68
2023-04-11T15:31:14.613Z,43.71
2023-04-11T15:33:43.218Z,44.09
2023-04-11T15:36:11.492Z,44.11
2023-04-11T15:38:39.705Z,44.33
2023-04-11T15:41:07.635Z,44.46
2023-04-11T15:43:35.519Z,44.69
2023-04-11T15:46:06.932Z,44.83
2023-04-11T15:48:34.932Z,45.15
2023-04-11T15:51:11.728Z,45.02
2023-04-11T15:53:40.077Z,45.35
2023-04-11T15:56:08.337Z,45.53
2023-04-11T15:58:36.376Z,45.86
2023-04-11T16:01:04.363Z,46.15
2023-04-11T16:03:33.002Z,46.34
2023-04-11T16:06:01.559Z,46.30
2023-04-11T16:08:29.494Z,46.01
2023-04-11T16:10:57.984Z,46.17
2023-04-11T16:13:25.797Z,46.29
2023-04-11T16:15:53.679Z,46.21
2023-04-11T16:18:21.489Z,46.38
2023-04-11T16:20:49.192Z,46.75
2023-04-11T16:23:16.990Z,47.08
2023-04-11T16:25:45.625Z,47.61
2023-04-11T16:28:15.363Z,48.09
2023-04-11T16:30:43.625Z,48.15
2023-04-11T16:33:12.988Z,48.56
2023-04-11T16:35:42.147Z,48.88
2023-04-11T16:38:10.205Z,49.01
2023-04-11T16:40:38.024Z,49.57
2023-04-11T16:43:06.118Z,49.92
2023-04-11T16:45:33.885Z,50.14
2023-04-11T16:48:01.674Z,50.64
2023-04-11T16:50:29.474Z,50.74
2023-04-11T16:52:57.356Z,51.21
2023-04-11T16:55:25.163Z,51.15
2023-04-11T16:57:53.403Z,51.43
2023-04-11T17:00:21.711Z,51.52
2023-04-11T17:02:49.694Z,51.99
2023-04-11T17:05:19.384Z,52.44
2023-04-11T17:07:47.178Z,53.05
2023-04-11T17:10:15.540Z,52.98
2023-04-11T17:12:43.255Z,53.48
2023-04-11T17:15:12.256Z,53.53
2023-04-11T17:17:40.568Z,54.01
2023-04-11T17:20:10.309Z,54.22
2023-04-11T17:22:41.425Z,54.46
2023-04-11T17:25:10.271Z,54.64
2023-04-11T17:27:38.483Z,55.46
2023-04-11T17:30:09.527Z,55.74
2023-04-11T17:32:38.971Z,56.02
2023-04-11T17:35:07.339Z,56.54
2023-04-11T17:37:36.125Z,56.82
2023-04-11T17:40:11.147Z,57.48
2023-04-11T17:42:40.081Z,57.75
2023-04-11T17:45:17.556Z,56.86
2023-04-11T17:47:47.296Z,57.71
2023-04-11T17:50:15.798Z,57.25
2023-04-11T17:52:46.451Z,58.20
2023-04-11T17:55:16.328Z,57.44
2023-04-11T17:57:46.216Z,57.90
2023-04-11T18:00:23.143Z,59.11
2023-04-11T18:02:54.549Z,58.73
2023-04-11T18:05:25.870Z,60.50
2023-04-11T18:07:58.677Z,60.03
2023-04-11T18:10:27.971Z,59.52
2023-04-11T18:12:57.398Z,60.39
2023-04-11T18:15:26.460Z,60.91
2023-04-11T18:17:54.508Z,60.35
2023-04-11T18:20:22.841Z,61.57
2023-04-11T18:22:56.040Z,60.70
2023-04-11T18:25:24.541Z,61.26
2023-04-11T18:27:52.482Z,61.21
2023-04-11T18:30:20.481Z,61.51
2023-04-11T18:32:51.010Z,61.71
2023-04-11T18:35:19.670Z,62.05
2023-04-11T18:37:47.843Z,62.23
2023-04-11T18:40:16.863Z,63.26
2023-04-11T18:42:47.933Z,61.39
2023-04-11T18:45:23.184Z,62.09
2023-04-11T18:47:51.626Z,61.62
2023-04-11T18:50:20.349Z,64.10
2023-04-11T18:52:52.757Z,64.13
2023-04-11T18:55:23.951Z,64.06
2023-04-11T18:57:54.239Z,64.64
2023-04-11T19:00:25.061Z,65.08
2023-04-11T19:02:53.488Z,65.02
2023-04-11T19:05:25.291Z,64.67
2023-04-11T19:07:53.815Z,64.97
2023-04-11T19:10:21.975Z,64.57
2023-04-11T19:12:49.725Z,64.74
2023-04-11T19:15:18.740Z,65.92
2023-04-11T19:17:46.604Z,65.89
2023-04-11T19:20:16.612Z,65.80
2023-04-11T19:22:46.233Z,65.93
2023-04-11T19:25:14.743Z,66.05
2023-04-11T19:27:43.363Z,67.29
2023-04-11T19:30:13.621Z,66.95
2023-04-11T19:32:44.040Z,67.19
2023-04-11T19:35:13.204Z,67.35
2023-04-11T19:37:41.317Z,67.50
2023-04-11T19:40:13.865Z,67.72
2023-04-11T19:42:43.156Z,67.26
2023-04-11T19:45:12.259Z,67.21
2023-04-11T19:47:41.287Z,66.08
2023-04-11T19:50:15.594Z,65.97
2023-04-11T19:52:43.788Z,65.90
2023-04-11T19:55:12.559Z,67.57
2023-04-11T19:57:43.328Z,69.70
2023-04-11T20:00:16.402Z,70.02
2023-04-11T20:02:48.044Z,70.66
2023-04-11T20:05:18.956Z,69.75
2023-04-11T20:07:47.813Z,69.90
2023-04-11T20:10:16.418Z,70.50
2023-04-11T20:12:44.676Z,70.58
2023-04-11T20:15:13.069Z,71.76
2023-04-11T20:17:41.782Z,69.74
2023-04-11T20:20:12.227Z,70.28
2023-04-11T20:22:40.500Z,70.17
2023-04-11T20:25:11.269Z,71.38
2023-04-11T20:27:40.320Z,72.04
2023-04-11T20:30:10.598Z,71.60
2023-04-11T20:32:40.017Z,72.02
2023-04-11T20:35:09.777Z,72.10
2023-04-11T20:37:40.078Z,74.22
2023-04-11T20:40:09.943Z,75.28
2023-04-11T20:42:45.691Z,74.19
2023-04-11T20:45:15.632Z,76.44
2023-04-11T20:47:46.240Z,77.22
2023-04-11T20:50:15.798Z,78.24
2023-04-11T20:52:45.567Z,76.59
2023-04-11T20:55:14.552Z,76.65
2023-04-11T20:57:42.646Z,75.74
2023-04-11T21:00:17.674Z,76.03
2023-04-11T21:02:49.732Z,76.89
2023-04-11T21:05:22.176Z,76.97
2023-04-11T21:07:50.158Z,79.62
2023-04-11T21:10:20.795Z,77.90
2023-04-11T21:12:51.957Z,77.15
2023-04-11T21:15:20.819Z,76.43
2023-04-11T21:17:48.835Z,77.64
2023-04-11T21:20:20.194Z,77.23
2023-04-11T21:22:49.706Z,78.47
2023-04-11T21:25:17.940Z,76.53
2023-04-11T21:27:46.778Z,77.29
2023-04-11T21:30:14.890Z,78.46
2023-04-11T21:32:42.827Z,78.36
2023-04-11T21:35:11.766Z,78.30
2023-04-11T21:37:39.567Z,79.40
2023-04-11T21:40:09.231Z,79.31
2023-04-11T21:42:39.778Z,78.70
2023-04-11T21:45:08.679Z,79.53
2023-04-11T21:47:36.500Z,79.52
2023-04-11T21:50:04.427Z,78.90
2023-04-11T21:52:32.406Z,79.35
2023-04-11T21:55:00.114Z,78.84
2023-04-11T21:57:28.002Z,81.07
2023-04-11T21:59:55.768Z,81.48
2023-04-11T22:02:23.889Z,81.24
2023-04-11T22:05:06.601Z,80.78
2023-04-11T22:07:48.391Z,79.36
2023-04-11T22:10:23.630Z,78.53
2023-04-11T22:12:54.428Z,81.12
2023-04-11T22:15:24.511Z,79.89
2023-04-11T22:17:54.565Z,80.51
2023-04-11T22:20:22.631Z,80.90
2023-04-11T22:22:50.633Z,82.29
2023-04-11T22:25:20.428Z,81.44
2023-04-11T22:27:49.817Z,82.41
2023-04-11T22:30:17.776Z,82.20
2023-04-11T22:32:47.070Z,82.63
2023-04-11T22:35:15.545Z,82.13
2023-04-11T22:37:43.292Z,83.88
2023-04-11T22:40:12.344Z,84.39
2023-04-11T22:42:40.496Z,83.75
2023-04-11T22:45:09.107Z,84.04
2023-04-11T22:47:38.235Z,84.58
2023-04-11T22:50:06.598Z,84.56
2023-04-11T22:52:35.601Z,84.51
2023-04-11T22:55:05.559Z,85.13
2023-04-11T22:57:34.313Z,85.84
2023-04-11T23:00:04.838Z,86.61
2023-04-11T23:02:33.563Z,86.49
2023-04-11T23:05:02.955Z,85.95
2023-04-11T23:07:34.654Z,84.98
2023-04-11T23:10:05.592Z,85.23
2023-04-11T23:12:33.955Z,85.64
2023-04-11T23:15:02.529Z,85.41
2023-04-11T23:17:30.318Z,85.53
2023-04-11T23:19:59.409Z,85.14
2023-04-11T23:22:27.609Z,85.37
2023-04-11T23:24:55.432Z,85.20
2023-04-11T23:27:23.494Z,84.86
2023-04-11T23:29:52.731Z,85.78
2023-04-11T23:32:21.286Z,85.85
2023-04-11T23:34:49.470Z,87.53
2023-04-11T23:37:17.873Z,86.54
2023-04-11T23:39:45.599Z,86.06
2023-04-11T23:42:13.340Z,85.88
2023-04-11T23:44:41.391Z,85.51
2023-04-11T23:47:09.172Z,85.17
2023-04-11T23:49:36.934Z,85.16
2023-04-11T23:52:04.706Z,86.18
2023-04-11T23:54:32.465Z,86.91
2023-04-11T23:57:02.467Z,87.55
2023-04-11T23:59:31.839Z,88.15
